sensor_id;sensor_type;location;lat;lon;timestamp;P1;durP1;ratioP1;P2;durP2;ratioP2
64791;SDS011;51226;47.504;19.074;2023-03-23T00:01:58;24.37;;;17.08;;
64791;SDS011;51226;47.504;19.074;2023-03-23T00:05:04;23.40;;;16.80;;
64791;SDS011;51226;47.504;19.074;2023-03-23T00:08:08;22.98;;;16.15;;
64791;SDS011;51226;47.504;19.074;2023-03-23T00:11:18;22.80;;;16.40;;
64791;SDS011;51226;47.504;19.074;2023-03-23T00:14:21;22.17;;;15.95;;
64791;SDS011;51226;47.504;19.074;2023-03-23T00:17:23;25.10;;;16.48;;
64791;SDS011;51226;47.504;19.074;2023-03-23T00:20:26;20.88;;;16.20;;
64791;SDS011;51226;47.504;19.074;2023-03-23T00:23:30;23.92;;;16.62;;
64791;SDS011;51226;47.504;19.074;2023-03-23T00:26:32;23.35;;;17.27;;
64791;SDS011;51226;47.504;19.074;2023-03-23T00:29:35;21.30;;;16.48;;
64791;SDS011;51226;47.504;19.074;2023-03-23T00:32:38;26.27;;;16.02;;
64791;SDS011;51226;47.504;19.074;2023-03-23T00:35:40;25.42;;;16.65;;
64791;SDS011;51226;47.504;19.074;2023-03-23T00:38:42;27.00;;;17.30;;
64791;SDS011;51226;47.504;19.074;2023-03-23T00:41:45;23.25;;;16.00;;
64791;SDS011;51226;47.504;19.074;2023-03-23T00:44:48;20.23;;;15.15;;
64791;SDS011;51226;47.504;19.074;2023-03-23T00:47:51;25.50;;;16.35;;
64791;SDS011;51226;47.504;19.074;2023-03-23T00:50:53;23.87;;;17.33;;
64791;SDS011;51226;47.504;19.074;2023-03-23T00:53:56;28.20;;;17.43;;
64791;SDS011;51226;47.504;19.074;2023-03-23T00:56:57;21.73;;;16.30;;
64791;SDS011;51226;47.504;19.074;2023-03-23T00:59:59;26.27;;;17.85;;
64791;SDS011;51226;47.504;19.074;2023-03-23T01:03:01;23.20;;;15.82;;
64791;SDS011;51226;47.504;19.074;2023-03-23T01:06:12;21.25;;;16.42;;
64791;SDS011;51226;47.504;19.074;2023-03-23T01:09:17;23.08;;;15.45;;
64791;SDS011;51226;47.504;19.074;2023-03-23T01:12:23;20.70;;;16.15;;
64791;SDS011;51226;47.504;19.074;2023-03-23T01:15:26;24.83;;;16.50;;
64791;SDS011;51226;47.504;19.074;2023-03-23T01:18:29;21.70;;;15.88;;
64791;SDS011;51226;47.504;19.074;2023-03-23T01:21:31;21.60;;;15.88;;
64791;SDS011;51226;47.504;19.074;2023-03-23T01:24:33;20.33;;;15.43;;
64791;SDS011;51226;47.504;19.074;2023-03-23T01:27:35;24.25;;;16.80;;
64791;SDS011;51226;47.504;19.074;2023-03-23T01:30:37;22.65;;;15.60;;
64791;SDS011;51226;47.504;19.074;2023-03-23T01:33:39;22.87;;;16.70;;
64791;SDS011;51226;47.504;19.074;2023-03-23T01:36:42;24.77;;;16.85;;
64791;SDS011;51226;47.504;19.074;2023-03-23T01:39:44;22.70;;;17.00;;
64791;SDS011;51226;47.504;19.074;2023-03-23T01:42:45;23.42;;;17.62;;
64791;SDS011;51226;47.504;19.074;2023-03-23T01:45:48;28.00;;;18.45;;
64791;SDS011;51226;47.504;19.074;2023-03-23T01:48:49;26.98;;;17.48;;
64791;SDS011;51226;47.504;19.074;2023-03-23T01:51:53;29.35;;;18.48;;
64791;SDS011;51226;47.504;19.074;2023-03-23T01:54:57;26.05;;;18.50;;
64791;SDS011;51226;47.504;19.074;2023-03-23T01:57:59;27.13;;;18.40;;
64791;SDS011;51226;47.504;19.074;2023-03-23T02:01:03;27.05;;;18.40;;
64791;SDS011;51226;47.504;19.074;2023-03-23T02:04:09;27.08;;;18.23;;
64791;SDS011;51226;47.504;19.074;2023-03-23T02:07:12;29.63;;;18.65;;
64791;SDS011;51226;47.504;19.074;2023-03-23T02:10:16;26.35;;;18.33;;
64791;SDS011;51226;47.504;19.074;2023-03-23T02:13:18;25.33;;;19.67;;
64791;SDS011;51226;47.504;19.074;2023-03-23T02:26:11;22.70;;;17.12;;
64791;SDS011;51226;47.504;19.074;2023-03-23T02:42:55;23.98;;;18.52;;
64791;SDS011;51226;47.504;19.074;2023-03-23T02:45:59;23.00;;;17.65;;
64791;SDS011;51226;47.504;19.074;2023-03-23T02:49:03;26.58;;;16.83;;
64791;SDS011;51226;47.504;19.074;2023-03-23T02:52:13;22.08;;;17.65;;
64791;SDS011;51226;47.504;19.074;2023-03-23T02:55:21;21.90;;;17.87;;
64791;SDS011;51226;47.504;19.074;2023-03-23T02:58:27;24.02;;;17.20;;
64791;SDS011;51226;47.504;19.074;2023-03-23T03:04:33;27.67;;;19.02;;
64791;SDS011;51226;47.504;19.074;2023-03-23T03:14:19;24.27;;;18.35;;
64791;SDS011;51226;47.504;19.074;2023-03-23T03:17:26;29.45;;;18.62;;
64791;SDS011;51226;47.504;19.074;2023-03-23T03:20:32;32.35;;;21.17;;
64791;SDS011;51226;47.504;19.074;2023-03-23T03:23:37;27.02;;;19.73;;
64791;SDS011;51226;47.504;19.074;2023-03-23T03:26:47;36.53;;;20.48;;
64791;SDS011;51226;47.504;19.074;2023-03-23T03:29:55;27.33;;;18.87;;
64791;SDS011;51226;47.504;19.074;2023-03-23T03:33:00;28.85;;;20.05;;
64791;SDS011;51226;47.504;19.074;2023-03-23T03:36:04;28.58;;;19.20;;
64791;SDS011;51226;47.504;19.074;2023-03-23T03:39:11;33.78;;;20.48;;
64791;SDS011;51226;47.504;19.074;2023-03-23T03:42:17;30.58;;;20.55;;
64791;SDS011;51226;47.504;19.074;2023-03-23T03:45:19;28.95;;;20.88;;
64791;SDS011;51226;47.504;19.074;2023-03-23T03:48:21;32.13;;;21.30;;
64791;SDS011;51226;47.504;19.074;2023-03-23T03:51:23;31.02;;;21.17;;
64791;SDS011;51226;47.504;19.074;2023-03-23T03:57:28;39.88;;;23.67;;
64791;SDS011;51226;47.504;19.074;2023-03-23T04:00:33;37.47;;;22.02;;
64791;SDS011;51226;47.504;19.074;2023-03-23T04:03:36;33.83;;;22.02;;
64791;SDS011;51226;47.504;19.074;2023-03-23T04:06:39;29.77;;;19.98;;
64791;SDS011;51226;47.504;19.074;2023-03-23T04:09:41;32.50;;;20.10;;
64791;SDS011;51226;47.504;19.074;2023-03-23T04:12:48;32.65;;;21.35;;
64791;SDS011;51226;47.504;19.074;2023-03-23T04:15:54;31.00;;;20.27;;
64791;SDS011;51226;47.504;19.074;2023-03-23T04:18:56;29.87;;;21.48;;
64791;SDS011;51226;47.504;19.074;2023-03-23T04:21:59;30.95;;;20.10;;
64791;SDS011;51226;47.504;19.074;2023-03-23T04:25:00;33.80;;;20.77;;
64791;SDS011;51226;47.504;19.074;2023-03-23T04:28:07;30.55;;;20.10;;
64791;SDS011;51226;47.504;19.074;2023-03-23T04:31:12;34.05;;;22.25;;
64791;SDS011;51226;47.504;19.074;2023-03-23T04:34:17;34.97;;;21.95;;
64791;SDS011;51226;47.504;19.074;2023-03-23T04:37:19;34.53;;;20.17;;
64791;SDS011;51226;47.504;19.074;2023-03-23T04:40:22;56.83;;;35.97;;
64791;SDS011;51226;47.504;19.074;2023-03-23T04:43:25;40.95;;;25.95;;
64791;SDS011;51226;47.504;19.074;2023-03-23T04:46:28;32.28;;;22.23;;
64791;SDS011;51226;47.504;19.074;2023-03-23T04:49:32;34.20;;;21.00;;
64791;SDS011;51226;47.504;19.074;2023-03-23T04:52:35;25.35;;;19.62;;
64791;SDS011;51226;47.504;19.074;2023-03-23T04:55:38;31.30;;;20.85;;
64791;SDS011;51226;47.504;19.074;2023-03-23T04:58:42;29.37;;;20.33;;
64791;SDS011;51226;47.504;19.074;2023-03-23T05:01:47;29.23;;;19.80;;
64791;SDS011;51226;47.504;19.074;2023-03-23T05:04:49;28.62;;;20.35;;
64791;SDS011;51226;47.504;19.074;2023-03-23T05:07:52;27.35;;;20.80;;
64791;SDS011;51226;47.504;19.074;2023-03-23T05:10:56;28.58;;;19.87;;
64791;SDS011;51226;47.504;19.074;2023-03-23T05:13:59;35.45;;;21.77;;
64791;SDS011;51226;47.504;19.074;2023-03-23T05:17:02;29.30;;;19.67;;
64791;SDS011;51226;47.504;19.074;2023-03-23T05:20:04;31.40;;;21.50;;
64791;SDS011;51226;47.504;19.074;2023-03-23T05:23:13;30.98;;;20.90;;
64791;SDS011;51226;47.504;19.074;2023-03-23T05:26:15;29.15;;;20.75;;
64791;SDS011;51226;47.504;19.074;2023-03-23T05:29:17;29.48;;;21.55;;
64791;SDS011;51226;47.504;19.074;2023-03-23T05:32:20;29.83;;;19.92;;
64791;SDS011;51226;47.504;19.074;2023-03-23T05:35:22;29.85;;;20.10;;
64791;SDS011;51226;47.504;19.074;2023-03-23T05:38:25;29.63;;;19.42;;
64791;SDS011;51226;47.504;19.074;2023-03-23T05:41:28;29.23;;;20.92;;
64791;SDS011;51226;47.504;19.074;2023-03-23T05:44:30;26.00;;;19.87;;
64791;SDS011;51226;47.504;19.074;2023-03-23T05:47:33;26.58;;;19.58;;
64791;SDS011;51226;47.504;19.074;2023-03-23T05:50:37;28.60;;;18.62;;
64791;SDS011;51226;47.504;19.074;2023-03-23T05:53:39;24.08;;;18.02;;
64791;SDS011;51226;47.504;19.074;2023-03-23T05:56:41;26.02;;;19.10;;
64791;SDS011;51226;47.504;19.074;2023-03-23T06:02:47;23.35;;;15.80;;
64791;SDS011;51226;47.504;19.074;2023-03-23T06:05:50;35.55;;;15.45;;
64791;SDS011;51226;47.504;19.074;2023-03-23T06:08:54;18.80;;;14.45;;
64791;SDS011;51226;47.504;19.074;2023-03-23T06:11:58;19.45;;;13.98;;
64791;SDS011;51226;47.504;19.074;2023-03-23T06:15:00;18.07;;;12.60;;
64791;SDS011;51226;47.504;19.074;2023-03-23T06:18:03;17.10;;;12.20;;
64791;SDS011;51226;47.504;19.074;2023-03-23T06:24:11;18.90;;;13.05;;
64791;SDS011;51226;47.504;19.074;2023-03-23T06:27:12;17.65;;;13.55;;
64791;SDS011;51226;47.504;19.074;2023-03-23T06:30:17;19.48;;;13.55;;
64791;SDS011;51226;47.504;19.074;2023-03-23T06:33:19;18.53;;;14.17;;
64791;SDS011;51226;47.504;19.074;2023-03-23T06:36:26;18.02;;;13.30;;
64791;SDS011;51226;47.504;19.074;2023-03-23T06:39:29;19.35;;;14.02;;
64791;SDS011;51226;47.504;19.074;2023-03-23T06:42:37;17.35;;;13.57;;
64791;SDS011;51226;47.504;19.074;2023-03-23T06:45:41;20.10;;;14.52;;
64791;SDS011;51226;47.504;19.074;2023-03-23T06:48:45;17.73;;;13.48;;
64791;SDS011;51226;47.504;19.074;2023-03-23T06:51:47;28.35;;;15.07;;
64791;SDS011;51226;47.504;19.074;2023-03-23T06:54:49;18.42;;;13.55;;
64791;SDS011;51226;47.504;19.074;2023-03-23T06:57:52;17.95;;;13.30;;
64791;SDS011;51226;47.504;19.074;2023-03-23T07:00:55;17.00;;;13.50;;
64791;SDS011;51226;47.504;19.074;2023-03-23T07:03:58;18.23;;;13.85;;
64791;SDS011;51226;47.504;19.074;2023-03-23T07:10:05;16.58;;;14.07;;
64791;SDS011;51226;47.504;19.074;2023-03-23T07:13:10;18.40;;;15.20;;
64791;SDS011;51226;47.504;19.074;2023-03-23T07:16:13;22.55;;;16.00;;
64791;SDS011;51226;47.504;19.074;2023-03-23T07:19:15;17.98;;;14.52;;
64791;SDS011;51226;47.504;19.074;2023-03-23T07:22:17;20.15;;;16.27;;
64791;SDS011;51226;47.504;19.074;2023-03-23T07:25:20;20.92;;;16.33;;
64791;SDS011;51226;47.504;19.074;2023-03-23T07:28:22;22.73;;;17.23;;
64791;SDS011;51226;47.504;19.074;2023-03-23T07:31:25;23.00;;;18.10;;
64791;SDS011;51226;47.504;19.074;2023-03-23T07:34:27;27.07;;;18.30;;
64791;SDS011;51226;47.504;19.074;2023-03-23T07:40:33;22.37;;;18.37;;
64791;SDS011;51226;47.504;19.074;2023-03-23T07:43:36;27.92;;;18.62;;
64791;SDS011;51226;47.504;19.074;2023-03-23T07:46:39;20.52;;;18.30;;
64791;SDS011;51226;47.504;19.074;2023-03-23T07:49:42;19.73;;;16.15;;
64791;SDS011;51226;47.504;19.074;2023-03-23T07:52:45;21.67;;;16.12;;
64791;SDS011;51226;47.504;19.074;2023-03-23T07:55:48;20.02;;;16.75;;
64791;SDS011;51226;47.504;19.074;2023-03-23T07:58:51;19.85;;;16.27;;
64791;SDS011;51226;47.504;19.074;2023-03-23T08:01:53;19.05;;;16.33;;
64791;SDS011;51226;47.504;19.074;2023-03-23T08:04:56;21.23;;;15.88;;
64791;SDS011;51226;47.504;19.074;2023-03-23T08:08:03;19.87;;;16.37;;
64791;SDS011;51226;47.504;19.074;2023-03-23T08:11:06;20.73;;;15.43;;
64791;SDS011;51226;47.504;19.074;2023-03-23T08:14:10;25.12;;;15.98;;
64791;SDS011;51226;47.504;19.074;2023-03-23T08:17:13;23.33;;;15.50;;
64791;SDS011;51226;47.504;19.074;2023-03-23T08:23:20;24.27;;;15.65;;
64791;SDS011;51226;47.504;19.074;2023-03-23T08:26:23;17.25;;;14.50;;
64791;SDS011;51226;47.504;19.074;2023-03-23T08:29:25;20.30;;;15.15;;
64791;SDS011;51226;47.504;19.074;2023-03-23T08:35:30;18.05;;;14.27;;
64791;SDS011;51226;47.504;19.074;2023-03-23T08:38:32;17.25;;;15.02;;
64791;SDS011;51226;47.504;19.074;2023-03-23T08:41:36;17.87;;;14.15;;
64791;SDS011;51226;47.504;19.074;2023-03-23T08:44:38;18.67;;;14.23;;
64791;SDS011;51226;47.504;19.074;2023-03-23T08:47:40;19.80;;;14.87;;
64791;SDS011;51226;47.504;19.074;2023-03-23T08:50:44;19.83;;;16.10;;
64791;SDS011;51226;47.504;19.074;2023-03-23T08:53:47;17.77;;;14.57;;
64791;SDS011;51226;47.504;19.074;2023-03-23T08:59:51;16.80;;;13.38;;
64791;SDS011;51226;47.504;19.074;2023-03-23T09:02:56;17.60;;;13.73;;
64791;SDS011;51226;47.504;19.074;2023-03-23T09:05:59;17.58;;;11.68;;
64791;SDS011;51226;47.504;19.074;2023-03-23T09:09:06;22.00;;;13.55;;
64791;SDS011;51226;47.504;19.074;2023-03-23T09:12:08;17.57;;;14.00;;
64791;SDS011;51226;47.504;19.074;2023-03-23T09:15:11;18.52;;;13.25;;
64791;SDS011;51226;47.504;19.074;2023-03-23T09:18:16;19.45;;;13.82;;
64791;SDS011;51226;47.504;19.074;2023-03-23T09:21:21;17.87;;;13.48;;
64791;SDS011;51226;47.504;19.074;2023-03-23T09:24:23;19.27;;;14.27;;
64791;SDS011;51226;47.504;19.074;2023-03-23T09:27:25;15.13;;;12.63;;
64791;SDS011;51226;47.504;19.074;2023-03-23T09:30:28;18.65;;;14.23;;
64791;SDS011;51226;47.504;19.074;2023-03-23T09:33:32;17.83;;;12.68;;
64791;SDS011;51226;47.504;19.074;2023-03-23T09:36:37;18.02;;;13.05;;
64791;SDS011;51226;47.504;19.074;2023-03-23T09:49:02;19.50;;;13.57;;
64791;SDS011;51226;47.504;19.074;2023-03-23T09:52:24;17.02;;;13.10;;
64791;SDS011;51226;47.504;19.074;2023-03-23T09:55:35;21.17;;;13.57;;
64791;SDS011;51226;47.504;19.074;2023-03-23T10:08:27;18.65;;;11.93;;
64791;SDS011;51226;47.504;19.074;2023-03-23T10:11:46;18.58;;;11.77;;
64791;SDS011;51226;47.504;19.074;2023-03-23T10:18:20;15.27;;;11.30;;
64791;SDS011;51226;47.504;19.074;2023-03-23T10:21:35;12.88;;;11.40;;
64791;SDS011;51226;47.504;19.074;2023-03-23T10:27:52;15.38;;;11.12;;
64791;SDS011;51226;47.504;19.074;2023-03-23T10:30:57;15.07;;;10.70;;
64791;SDS011;51226;47.504;19.074;2023-03-23T10:34:05;12.43;;;10.32;;
64791;SDS011;51226;47.504;19.074;2023-03-23T10:37:16;14.52;;;10.60;;
64791;SDS011;51226;47.504;19.074;2023-03-23T10:40:25;17.73;;;13.88;;
64791;SDS011;51226;47.504;19.074;2023-03-23T10:43:31;17.30;;;13.43;;
64791;SDS011;51226;47.504;19.074;2023-03-23T10:49:59;12.88;;;10.10;;
64791;SDS011;51226;47.504;19.074;2023-03-23T10:53:07;13.85;;;10.45;;
64791;SDS011;51226;47.504;19.074;2023-03-23T10:56:20;17.83;;;11.20;;
64791;SDS011;51226;47.504;19.074;2023-03-23T10:59:27;13.18;;;9.77;;
64791;SDS011;51226;47.504;19.074;2023-03-23T11:02:31;10.95;;;8.77;;
64791;SDS011;51226;47.504;19.074;2023-03-23T11:05:43;15.18;;;9.60;;
64791;SDS011;51226;47.504;19.074;2023-03-23T11:09:18;16.33;;;9.68;;
64791;SDS011;51226;47.504;19.074;2023-03-23T11:12:36;12.13;;;8.80;;
64791;SDS011;51226;47.504;19.074;2023-03-23T11:15:39;15.68;;;8.02;;
64791;SDS011;51226;47.504;19.074;2023-03-23T11:18:42;14.13;;;7.03;;
64791;SDS011;51226;47.504;19.074;2023-03-23T11:21:50;9.32;;;6.62;;
64791;SDS011;51226;47.504;19.074;2023-03-23T11:24:55;7.20;;;5.80;;
64791;SDS011;51226;47.504;19.074;2023-03-23T11:28:02;9.63;;;5.20;;
64791;SDS011;51226;47.504;19.074;2023-03-23T11:31:04;9.25;;;5.80;;
64791;SDS011;51226;47.504;19.074;2023-03-23T11:34:14;8.75;;;5.22;;
64791;SDS011;51226;47.504;19.074;2023-03-23T11:40:30;5.85;;;5.28;;
64791;SDS011;51226;47.504;19.074;2023-03-23T11:50:04;10.25;;;5.28;;
64791;SDS011;51226;47.504;19.074;2023-03-23T11:56:55;6.90;;;4.85;;
64791;SDS011;51226;47.504;19.074;2023-03-23T11:59:58;10.20;;;5.80;;
64791;SDS011;51226;47.504;19.074;2023-03-23T12:09:53;8.27;;;6.43;;
64791;SDS011;51226;47.504;19.074;2023-03-23T12:13:06;7.20;;;5.10;;
64791;SDS011;51226;47.504;19.074;2023-03-23T12:26:37;6.70;;;4.75;;
64791;SDS011;51226;47.504;19.074;2023-03-23T12:29:50;5.22;;;4.72;;
64791;SDS011;51226;47.504;19.074;2023-03-23T12:36:18;6.65;;;4.10;;
64791;SDS011;51226;47.504;19.074;2023-03-23T12:43:19;6.87;;;4.00;;
64791;SDS011;51226;47.504;19.074;2023-03-23T12:49:50;5.35;;;4.30;;
64791;SDS011;51226;47.504;19.074;2023-03-23T12:52:58;5.25;;;4.18;;
64791;SDS011;51226;47.504;19.074;2023-03-23T13:06:23;6.35;;;4.00;;
64791;SDS011;51226;47.504;19.074;2023-03-23T13:12:56;4.32;;;3.60;;
64791;SDS011;51226;47.504;19.074;2023-03-23T13:16:04;3.40;;;3.10;;
64791;SDS011;51226;47.504;19.074;2023-03-23T13:32:05;4.45;;;4.05;;
64791;SDS011;51226;47.504;19.074;2023-03-23T13:35:12;4.60;;;3.78;;
64791;SDS011;51226;47.504;19.074;2023-03-23T13:38:20;4.18;;;3.78;;
64791;SDS011;51226;47.504;19.074;2023-03-23T13:41:25;4.95;;;3.55;;
64791;SDS011;51226;47.504;19.074;2023-03-23T13:47:48;6.50;;;3.95;;
64791;SDS011;51226;47.504;19.074;2023-03-23T13:50:57;5.07;;;3.65;;
64791;SDS011;51226;47.504;19.074;2023-03-23T13:54:05;8.00;;;4.00;;
64791;SDS011;51226;47.504;19.074;2023-03-23T13:57:26;5.62;;;4.00;;
64791;SDS011;51226;47.504;19.074;2023-03-23T14:00:49;4.37;;;3.80;;
64791;SDS011;51226;47.504;19.074;2023-03-23T14:04:04;5.57;;;4.18;;
64791;SDS011;51226;47.504;19.074;2023-03-23T14:07:11;4.87;;;3.97;;
64791;SDS011;51226;47.504;19.074;2023-03-23T14:10:17;6.32;;;4.15;;
64791;SDS011;51226;47.504;19.074;2023-03-23T14:19:54;4.60;;;4.15;;
64791;SDS011;51226;47.504;19.074;2023-03-23T14:23:00;8.00;;;4.10;;
64791;SDS011;51226;47.504;19.074;2023-03-23T14:26:04;3.85;;;3.53;;
64791;SDS011;51226;47.504;19.074;2023-03-23T14:29:14;4.28;;;3.87;;
64791;SDS011;51226;47.504;19.074;2023-03-23T14:32:17;7.72;;;3.87;;
64791;SDS011;51226;47.504;19.074;2023-03-23T14:35:30;8.25;;;4.03;;
64791;SDS011;51226;47.504;19.074;2023-03-23T14:38:36;3.83;;;3.50;;
64791;SDS011;51226;47.504;19.074;2023-03-23T14:41:40;7.78;;;4.12;;
64791;SDS011;51226;47.504;19.074;2023-03-23T14:44:45;8.75;;;4.60;;
64791;SDS011;51226;47.504;19.074;2023-03-23T14:47:54;5.53;;;4.35;;
64791;SDS011;51226;47.504;19.074;2023-03-23T14:50:59;8.07;;;4.35;;
64791;SDS011;51226;47.504;19.074;2023-03-23T14:54:07;6.80;;;4.95;;
64791;SDS011;51226;47.504;19.074;2023-03-23T14:57:13;6.20;;;4.15;;
64791;SDS011;51226;47.504;19.074;2023-03-23T15:00:20;7.50;;;4.25;;
64791;SDS011;51226;47.504;19.074;2023-03-23T15:03:24;6.20;;;4.30;;
64791;SDS011;51226;47.504;19.074;2023-03-23T15:06:29;8.80;;;3.67;;
64791;SDS011;51226;47.504;19.074;2023-03-23T15:09:34;5.00;;;3.45;;
64791;SDS011;51226;47.504;19.074;2023-03-23T15:12:44;4.22;;;3.60;;
64791;SDS011;51226;47.504;19.074;2023-03-23T15:15:48;4.12;;;3.72;;
64791;SDS011;51226;47.504;19.074;2023-03-23T15:18:55;5.62;;;3.55;;
64791;SDS011;51226;47.504;19.074;2023-03-23T15:29:00;9.30;;;4.07;;
64791;SDS011;51226;47.504;19.074;2023-03-23T15:32:03;7.32;;;4.53;;
64791;SDS011;51226;47.504;19.074;2023-03-23T15:35:16;5.03;;;4.47;;
64791;SDS011;51226;47.504;19.074;2023-03-23T15:38:28;9.02;;;4.75;;
64791;SDS011;51226;47.504;19.074;2023-03-23T15:41:32;6.65;;;4.40;;
64791;SDS011;51226;47.504;19.074;2023-03-23T15:44:35;6.45;;;5.07;;
64791;SDS011;51226;47.504;19.074;2023-03-23T15:50:45;8.35;;;4.95;;
64791;SDS011;51226;47.504;19.074;2023-03-23T15:53:50;5.00;;;4.20;;
64791;SDS011;51226;47.504;19.074;2023-03-23T15:56:53;5.18;;;4.22;;
64791;SDS011;51226;47.504;19.074;2023-03-23T15:59:54;8.13;;;4.80;;
64791;SDS011;51226;47.504;19.074;2023-03-23T16:03:04;6.40;;;4.50;;
64791;SDS011;51226;47.504;19.074;2023-03-23T16:06:12;5.45;;;3.67;;
64791;SDS011;51226;47.504;19.074;2023-03-23T16:09:26;7.18;;;3.95;;
64791;SDS011;51226;47.504;19.074;2023-03-23T16:12:29;5.30;;;4.62;;
64791;SDS011;51226;47.504;19.074;2023-03-23T16:18:35;5.80;;;4.20;;
64791;SDS011;51226;47.504;19.074;2023-03-23T16:21:39;7.20;;;4.00;;
64791;SDS011;51226;47.504;19.074;2023-03-23T16:24:42;4.18;;;3.72;;
64791;SDS011;51226;47.504;19.074;2023-03-23T16:27:45;5.07;;;3.65;;
64791;SDS011;51226;47.504;19.074;2023-03-23T16:30:54;3.97;;;3.30;;
64791;SDS011;51226;47.504;19.074;2023-03-23T16:33:57;4.45;;;4.05;;
64791;SDS011;51226;47.504;19.074;2023-03-23T16:40:04;4.65;;;3.85;;
64791;SDS011;51226;47.504;19.074;2023-03-23T16:43:08;4.78;;;3.10;;
64791;SDS011;51226;47.504;19.074;2023-03-23T16:46:12;7.05;;;3.35;;
64791;SDS011;51226;47.504;19.074;2023-03-23T16:49:15;4.05;;;3.33;;
64791;SDS011;51226;47.504;19.074;2023-03-23T16:55:22;4.03;;;3.65;;
64791;SDS011;51226;47.504;19.074;2023-03-23T16:58:27;9.10;;;3.90;;
64791;SDS011;51226;47.504;19.074;2023-03-23T17:04:33;11.90;;;4.07;;
64791;SDS011;51226;47.504;19.074;2023-03-23T17:07:37;8.55;;;4.45;;
64791;SDS011;51226;47.504;19.074;2023-03-23T17:10:41;9.38;;;4.00;;
64791;SDS011;51226;47.504;19.074;2023-03-23T17:13:45;6.10;;;4.25;;
64791;SDS011;51226;47.504;19.074;2023-03-23T17:19:50;7.45;;;3.80;;
64791;SDS011;51226;47.504;19.074;2023-03-23T17:22:53;6.10;;;3.83;;
64791;SDS011;51226;47.504;19.074;2023-03-23T17:25:56;5.90;;;3.58;;
64791;SDS011;51226;47.504;19.074;2023-03-23T17:32:04;6.53;;;4.10;;
64791;SDS011;51226;47.504;19.074;2023-03-23T17:35:07;7.78;;;3.75;;
64791;SDS011;51226;47.504;19.074;2023-03-23T17:38:15;8.75;;;4.78;;
64791;SDS011;51226;47.504;19.074;2023-03-23T17:41:19;7.40;;;4.60;;
64791;SDS011;51226;47.504;19.074;2023-03-23T17:44:25;6.57;;;4.22;;
64791;SDS011;51226;47.504;19.074;2023-03-23T17:47:28;7.57;;;4.68;;
64791;SDS011;51226;47.504;19.074;2023-03-23T17:50:33;9.57;;;5.12;;
64791;SDS011;51226;47.504;19.074;2023-03-23T17:53:36;13.55;;;6.53;;
64791;SDS011;51226;47.504;19.074;2023-03-23T17:56:39;7.37;;;4.82;;
64791;SDS011;51226;47.504;19.074;2023-03-23T17:59:42;6.43;;;5.60;;
64791;SDS011;51226;47.504;19.074;2023-03-23T18:02:48;8.90;;;5.75;;
64791;SDS011;51226;47.504;19.074;2023-03-23T18:06:09;8.60;;;5.55;;
64791;SDS011;51226;47.504;19.074;2023-03-23T18:09:13;12.40;;;6.12;;
64791;SDS011;51226;47.504;19.074;2023-03-23T18:12:24;9.98;;;6.50;;
64791;SDS011;51226;47.504;19.074;2023-03-23T18:15:27;10.02;;;6.45;;
64791;SDS011;51226;47.504;19.074;2023-03-23T18:18:36;8.05;;;6.00;;
64791;SDS011;51226;47.504;19.074;2023-03-23T18:21:42;11.77;;;7.40;;
64791;SDS011;51226;47.504;19.074;2023-03-23T18:24:52;10.85;;;7.37;;
64791;SDS011;51226;47.504;19.074;2023-03-23T18:27:59;10.50;;;6.80;;
64791;SDS011;51226;47.504;19.074;2023-03-23T18:31:10;11.63;;;7.37;;
64791;SDS011;51226;47.504;19.074;2023-03-23T18:34:15;12.48;;;7.55;;
64791;SDS011;51226;47.504;19.074;2023-03-23T18:37:18;11.73;;;7.25;;
64791;SDS011;51226;47.504;19.074;2023-03-23T18:40:22;12.70;;;6.93;;
64791;SDS011;51226;47.504;19.074;2023-03-23T18:43:27;8.88;;;6.32;;
64791;SDS011;51226;47.504;19.074;2023-03-23T18:46:31;10.98;;;7.00;;
64791;SDS011;51226;47.504;19.074;2023-03-23T18:49:41;8.32;;;7.30;;
64791;SDS011;51226;47.504;19.074;2023-03-23T18:52:47;10.55;;;7.75;;
64791;SDS011;51226;47.504;19.074;2023-03-23T18:55:50;15.02;;;7.45;;
64791;SDS011;51226;47.504;19.074;2023-03-23T18:58:53;11.75;;;7.53;;
64791;SDS011;51226;47.504;19.074;2023-03-23T19:01:57;12.35;;;8.27;;
64791;SDS011;51226;47.504;19.074;2023-03-23T19:05:01;11.88;;;8.23;;
64791;SDS011;51226;47.504;19.074;2023-03-23T19:08:05;15.57;;;9.05;;
64791;SDS011;51226;47.504;19.074;2023-03-23T19:11:09;11.73;;;8.63;;
64791;SDS011;51226;47.504;19.074;2023-03-23T19:14:12;9.13;;;7.97;;
64791;SDS011;51226;47.504;19.074;2023-03-23T19:17:15;14.68;;;8.35;;
64791;SDS011;51226;47.504;19.074;2023-03-23T19:20:19;13.18;;;9.30;;
64791;SDS011;51226;47.504;19.074;2023-03-23T19:23:41;11.43;;;8.97;;
64791;SDS011;51226;47.504;19.074;2023-03-23T19:26:45;12.68;;;9.00;;
64791;SDS011;51226;47.504;19.074;2023-03-23T19:29:49;14.82;;;9.48;;
64791;SDS011;51226;47.504;19.074;2023-03-23T19:32:52;14.32;;;9.90;;
64791;SDS011;51226;47.504;19.074;2023-03-23T19:35:55;14.35;;;9.27;;
64791;SDS011;51226;47.504;19.074;2023-03-23T19:39:13;18.17;;;10.70;;
64791;SDS011;51226;47.504;19.074;2023-03-23T19:42:15;14.45;;;9.73;;
64791;SDS011;51226;47.504;19.074;2023-03-23T19:45:20;12.45;;;9.60;;
64791;SDS011;51226;47.504;19.074;2023-03-23T19:48:22;14.00;;;9.57;;
64791;SDS011;51226;47.504;19.074;2023-03-23T19:51:26;14.75;;;10.50;;
64791;SDS011;51226;47.504;19.074;2023-03-23T19:54:30;14.60;;;10.75;;
64791;SDS011;51226;47.504;19.074;2023-03-23T19:57:33;16.98;;;11.18;;
64791;SDS011;51226;47.504;19.074;2023-03-23T20:00:36;15.13;;;11.55;;
64791;SDS011;51226;47.504;19.074;2023-03-23T20:03:40;18.12;;;11.80;;
64791;SDS011;51226;47.504;19.074;2023-03-23T20:06:43;14.77;;;11.02;;
64791;SDS011;51226;47.504;19.074;2023-03-23T20:09:47;19.48;;;11.82;;
64791;SDS011;51226;47.504;19.074;2023-03-23T20:15:53;13.83;;;11.37;;
64791;SDS011;51226;47.504;19.074;2023-03-23T20:19:00;17.90;;;10.80;;
64791;SDS011;51226;47.504;19.074;2023-03-23T20:22:09;14.40;;;11.00;;
64791;SDS011;51226;47.504;19.074;2023-03-23T20:25:15;15.60;;;11.80;;
64791;SDS011;51226;47.504;19.074;2023-03-23T20:28:19;15.07;;;11.45;;
64791;SDS011;51226;47.504;19.074;2023-03-23T20:31:26;13.23;;;10.80;;
64791;SDS011;51226;47.504;19.074;2023-03-23T20:34:32;14.52;;;11.50;;
64791;SDS011;51226;47.504;19.074;2023-03-23T20:37:35;14.48;;;10.40;;
64791;SDS011;51226;47.504;19.074;2023-03-23T20:40:42;13.07;;;9.65;;
64791;SDS011;51226;47.504;19.074;2023-03-23T20:43:46;13.32;;;9.80;;
64791;SDS011;51226;47.504;19.074;2023-03-23T20:49:53;13.43;;;9.88;;
64791;SDS011;51226;47.504;19.074;2023-03-23T20:52:57;12.45;;;9.60;;
64791;SDS011;51226;47.504;19.074;2023-03-23T20:56:01;14.63;;;10.38;;
64791;SDS011;51226;47.504;19.074;2023-03-23T20:59:07;11.68;;;9.20;;
64791;SDS011;51226;47.504;19.074;2023-03-23T21:02:14;13.77;;;10.10;;
64791;SDS011;51226;47.504;19.074;2023-03-23T21:05:19;12.65;;;9.43;;
64791;SDS011;51226;47.504;19.074;2023-03-23T21:08:22;12.05;;;9.63;;
64791;SDS011;51226;47.504;19.074;2023-03-23T21:11:26;13.80;;;10.50;;
64791;SDS011;51226;47.504;19.074;2023-03-23T21:14:29;10.20;;;9.18;;
64791;SDS011;51226;47.504;19.074;2023-03-23T21:20:35;13.10;;;10.03;;